Hollister, CA (95023)

5:58 PM PDT on October 24, 2014 (GMT -0700)
Hollister | Change Station
CLOSE
Current Station
Personal Weather Station
Location: Hollister, CA
Elevation: 390 ft
Nearby Weather Stations

Elev 390 ft 36.84 °N, 121.37 °W | Updated 2 minutes ago

Clear
Clear
63.6 °F
Feels Like 63.6 °F
N
4.0
Wind Variable Wind from East

Today
High -- | Low -- °F
--% Chance of Precip.
Yesterday
High -- | Low -- °F
Precip. -- in
7:21 AM 6:17 PM
New Moon, 1% visible
Pressure 29.93 in
Visibility 10.0 miles
Clouds Clear
Dew Point 56 °F
Humidity 76%
Rainfall 0.00 in
Snow Depth Not available.
UV 0 out of 12
Pollen 2.60 out of 12
Air Quality Not available.
Flu Activity Sporadic
METAR KCVH 250055Z AUTO 24012G19KT 10SM CLR 18/13 A2993 RMK AO1

More Conditions Fewer Conditions

Pressure 29.93 in
Visibility 10.0 miles
Clouds Clear
Dew Point 56 °F
Humidity 76%
Rainfall 0.00 in
Snow Depth Not available.
UV 0 out of 12
Pollen 2.60 out of 12
Air Quality Not available.
Flu Activity Sporadic
METAR KCVH 250055Z AUTO 24012G19KT 10SM CLR 18/13 A2993 RMK AO1

More Conditions Fewer Conditions

10-Day Weather Forecast

Almanac

Astronomy

Oct. 24, 2014 Rise Set
Actual Time 7:21 AM PDT 6:17 PM PDT
Civil Twilight 6:55 AM PDT 6:43 PM PDT
Nautical Twilight 6:24 AM PDT 7:13 PM PDT
Astronomical Twilight 5:54 AM PDT 7:43 PM PDT
Moon 8:04 AM PDT (10/24) 7:02 PM PDT (10/24)
Length of Visible Light 11h 48m
Length of Day
10h 55m
Tomorrow will be 2m 10s shorter.
New Moon, 1% of the Moon is Illuminated
Today
New Moon
Oct 30
First Quarter
Nov 6
Full
Nov 14
Last Quarter
Nov 22
New

Today's Extremes

State Highs State Lows

Community

WunderPhotos

Upload Photos

1,764,735 photos uploaded!

WunderBlogs® & News

Nearby

Snow Depth

Station Depth Elevation
Leavitt Meadows 0 in 7200 ft
Summit Meadow 0 in 9122 ft
Echo Peak 0 in 7800 ft
Ward Creek #3 12 in 6750 ft
Adin Mountain 0 in 6200 ft

Earthquake Activity

City Distance Mag. Time & Date
Kettleman City, California 111 miles 2.5 9:08 AM PDT
2014-10-22
Minimum magnitude displayed is 2.5.

Coastal Water Temperatures

Place Temperature
Monterey, CA 64.0 °F
Redwood City, CA 66.9 °F

Nearby Weather Stations